Time;durP1;ratioP1;P1;durP2;ratioP2;P2;SDS_P1;SDS_P2;PMS_P1;PMS_P2;Temp;Humidity;BMP_temperature;BMP_pressure;BME280_temperature;BME280_humidity;BME280_pressure;Samples;Min_cycle;Max_cycle;Signal;HPM_P1;HPM_P2
2022/07/20 00:01:56;;;;;;;;;24.75;22.00;;;;;;;;5098192;27;45157;-63
2022/07/20 00:04:22;;;;;;;;;22.75;21.75;;;;;;;;5098341;27;45364;-63
2022/07/20 00:06:47;;;;;;;;;26.25;24.00;;;;;;;;5098368;27;45359;-63
2022/07/20 00:11:56;;;;;;;;;21.75;20.50;;;;;;;;5098077;27;45329;-64
2022/07/20 00:14:21;;;;;;;;;22.00;22.00;;;;;;;;5098226;27;45281;-63
2022/07/20 00:16:46;;;;;;;;;23.00;22.75;;;;;;;;5098307;27;45273;-63
2022/07/20 00:19:11;;;;;;;;;26.75;24.75;;;;;;;;5097795;27;46500;-63
2022/07/20 00:21:37;;;;;;;;;20.50;18.75;;;;;;;;5097937;27;45587;-64
2022/07/20 00:24:02;;;;;;;;;23.00;20.50;;;;;;;;5098014;27;45401;-64
2022/07/20 00:26:27;;;;;;;;;30.00;28.50;;;;;;;;5097817;27;45493;-63
2022/07/20 00:28:53;;;;;;;;;24.75;23.75;;;;;;;;5097895;27;45691;-63
2022/07/20 00:31:19;;;;;;;;;25.75;21.75;;;;;;;;5097948;27;45292;-63
2022/07/20 00:33:46;;;;;;;;;23.75;23.75;;;;;;;;5079485;27;45370;-63
2022/07/20 00:36:12;;;;;;;;;22.25;21.50;;;;;;;;5097819;27;45333;-64
2022/07/20 00:38:37;;;;;;;;;21.75;21.75;;;;;;;;5097427;27;45592;-64
2022/07/20 00:41:02;;;;;;;;;24.50;23.00;;;;;;;;5097561;27;45602;-64
2022/07/20 00:43:27;;;;;;;;;27.75;23.00;;;;;;;;5097979;27;45360;-64
2022/07/20 00:45:52;;;;;;;;;24.25;22.00;;;;;;;;5097820;27;45345;-64
2022/07/20 00:48:18;;;;;;;;;23.25;21.50;;;;;;;;5097429;27;46429;-64
2022/07/20 00:50:43;;;;;;;;;26.25;26.25;;;;;;;;5097694;27;45357;-64
2022/07/20 00:53:08;;;;;;;;;32.50;29.75;;;;;;;;5079315;27;45265;-65
2022/07/20 00:55:34;;;;;;;;;31.50;28.50;;;;;;;;5096987;27;45234;-66
2022/07/20 00:57:59;;;;;;;;;33.50;29.50;;;;;;;;5097211;27;46168;-64
2022/07/20 01:00:24;;;;;;;;;37.25;34.00;;;;;;;;5097058;27;45340;-64
2022/07/20 01:02:50;;;;;;;;;39.25;34.50;;;;;;;;5095597;27;45397;-64
2022/07/20 01:05:15;;;;;;;;;48.00;40.75;;;;;;;;5096650;27;45326;-64
2022/07/20 01:07:41;;;;;;;;;42.25;37.25;;;;;;;;5096991;27;46139;-64
2022/07/20 01:10:07;;;;;;;;;59.75;46.00;;;;;;;;5097094;27;45524;-65
2022/07/20 01:12:32;;;;;;;;;51.25;42.25;;;;;;;;5097217;27;45395;-64
2022/07/20 01:14:57;;;;;;;;;50.25;41.00;;;;;;;;5097230;27;45376;-65
2022/07/20 01:17:23;;;;;;;;;52.00;43.25;;;;;;;;5096779;27;47397;-65
2022/07/20 01:19:48;;;;;;;;;57.50;43.25;;;;;;;;5097170;27;45438;-64
2022/07/20 01:22:13;;;;;;;;;53.00;43.50;;;;;;;;5096994;27;45394;-64
2022/07/20 01:24:38;;;;;;;;;53.50;44.50;;;;;;;;5096609;27;45549;-65
2022/07/20 01:27:04;;;;;;;;;51.25;43.75;;;;;;;;5096790;27;45556;-64
2022/07/20 01:29:29;;;;;;;;;46.50;40.25;;;;;;;;5096524;27;45391;-64
2022/07/20 01:31:54;;;;;;;;;51.75;44.00;;;;;;;;5097124;27;45355;-64
2022/07/20 01:34:20;;;;;;;;;52.00;42.75;;;;;;;;5096750;27;45306;-64
2022/07/20 01:36:45;;;;;;;;;54.25;45.00;;;;;;;;5096469;27;45581;-65
2022/07/20 01:39:10;;;;;;;;;50.75;43.00;;;;;;;;5096588;27;45484;-64
2022/07/20 01:41:36;;;;;;;;;51.50;43.50;;;;;;;;5097012;27;45413;-64
2022/07/20 01:44:01;;;;;;;;;54.50;45.75;;;;;;;;5096729;27;45281;-65
2022/07/20 01:46:26;;;;;;;;;58.25;46.50;;;;;;;;5078119;27;47510;-65
2022/07/20 01:48:51;;;;;;;;;52.75;44.50;;;;;;;;5078161;27;45895;-65
2022/07/20 01:51:16;;;;;;;;;58.25;46.75;;;;;;;;5096795;27;45242;-64
2022/07/20 01:53:42;;;;;;;;;49.75;40.00;;;;;;;;5096516;27;45359;-64
2022/07/20 01:56:07;;;;;;;;;55.00;46.25;;;;;;;;5096378;27;45801;-65
2022/07/20 01:58:32;;;;;;;;;55.00;45.50;;;;;;;;5096457;27;45226;-64
2022/07/20 02:00:57;;;;;;;;;58.75;48.50;;;;;;;;5096490;27;45352;-65
2022/07/20 02:03:22;;;;;;;;;54.50;44.50;;;;;;;;5096679;27;45353;-64
2022/07/20 02:05:48;;;;;;;;;60.25;46.25;;;;;;;;5095907;27;45887;-63
2022/07/20 02:08:13;;;;;;;;;58.00;46.75;;;;;;;;5095389;27;45404;-65
2022/07/20 02:10:38;;;;;;;;;62.00;50.25;;;;;;;;5096335;27;45239;-64
2022/07/20 02:13:04;;;;;;;;;57.25;46.25;;;;;;;;5096397;27;45210;-65
2022/07/20 02:18:13;;;;;;;;;56.75;45.75;;;;;;;;5096141;27;45372;-65
2022/07/20 02:20:39;;;;;;;;;59.00;48.00;;;;;;;;5077823;27;45491;-64
2022/07/20 02:23:05;;;;;;;;;60.00;47.50;;;;;;;;5095976;27;45317;-65
2022/07/20 02:25:31;;;;;;;;;55.50;45.25;;;;;;;;5095602;27;46712;-64
2022/07/20 02:27:56;;;;;;;;;52.00;43.00;;;;;;;;5095999;27;45381;-65
2022/07/20 02:30:22;;;;;;;;;58.25;48.00;;;;;;;;5077843;27;45386;-65
2022/07/20 02:32:48;;;;;;;;;58.50;47.25;;;;;;;;5095991;27;45401;-65
2022/07/20 02:35:13;;;;;;;;;55.50;46.50;;;;;;;;5095920;27;45790;-65
2022/07/20 02:37:38;;;;;;;;;60.75;48.75;;;;;;;;5095775;27;45254;-64
2022/07/20 02:40:04;;;;;;;;;64.75;49.50;;;;;;;;5096181;27;45318;-65
2022/07/20 02:42:29;;;;;;;;;60.25;48.25;;;;;;;;5095854;27;45418;-64
2022/07/20 02:44:55;;;;;;;;;58.75;48.25;;;;;;;;5095925;27;45912;-65
2022/07/20 02:47:20;;;;;;;;;60.50;49.00;;;;;;;;5077322;27;46487;-65
2022/07/20 02:49:45;;;;;;;;;54.50;46.00;;;;;;;;5095671;27;45355;-66
2022/07/20 02:52:10;;;;;;;;;59.25;50.00;;;;;;;;5077581;27;45498;-66
2022/07/20 02:54:36;;;;;;;;;61.00;50.25;;;;;;;;5095434;27;46493;-65
2022/07/20 02:57:01;;;;;;;;;60.25;50.00;;;;;;;;5095709;27;45355;-66
2022/07/20 02:59:26;;;;;;;;;60.50;49.50;;;;;;;;5077387;27;45357;-65
2022/07/20 03:01:51;;;;;;;;;64.25;50.50;;;;;;;;5095656;27;45369;-68
2022/07/20 03:04:17;;;;;;;;;58.50;48.50;;;;;;;;5095502;27;46749;-64
2022/07/20 03:06:42;;;;;;;;;62.00;47.75;;;;;;;;5077296;27;45287;-64
2022/07/20 03:09:07;;;;;;;;;58.25;48.50;;;;;;;;5077179;27;45410;-64
2022/07/20 03:11:32;;;;;;;;;57.50;47.25;;;;;;;;5095766;27;45423;-65
2022/07/20 03:13:57;;;;;;;;;55.50;46.50;;;;;;;;5095497;27;45887;-65
2022/07/20 03:16:23;;;;;;;;;61.25;50.25;;;;;;;;5095370;27;45428;-65
2022/07/20 03:18:48;;;;;;;;;58.75;49.00;;;;;;;;5097476;27;45459;-65
2022/07/20 03:21:13;;;;;;;;;46.00;38.50;;;;;;;;5099019;27;45348;-65
2022/07/20 03:23:38;;;;;;;;;60.75;49.25;;;;;;;;5098887;27;45567;-64
2022/07/20 03:26:03;;;;;;;;;27.25;25.50;;;;;;;;5098616;27;45317;-65
2022/07/20 03:28:29;;;;;;;;;63.50;49.75;;;;;;;;5099084;27;45367;-64
2022/07/20 03:30:54;;;;;;;;;59.25;49.00;;;;;;;;5099041;27;45253;-65
2022/07/20 03:33:19;;;;;;;;;58.00;47.75;;;;;;;;5098774;27;46381;-64
2022/07/20 03:35:44;;;;;;;;;57.75;48.50;;;;;;;;5098797;27;45182;-64
2022/07/20 03:38:09;;;;;;;;;59.50;48.50;;;;;;;;5098616;27;45333;-65
2022/07/20 03:40:35;;;;;;;;;54.50;44.75;;;;;;;;5098788;27;45312;-64
2022/07/20 03:43:00;;;;;;;;;60.25;47.50;;;;;;;;5098419;27;45246;-64
2022/07/20 03:45:25;;;;;;;;;57.50;46.75;;;;;;;;5098276;27;45971;-65
2022/07/20 03:47:50;;;;;;;;;59.50;47.50;;;;;;;;5098817;27;45349;-64
2022/07/20 03:50:15;;;;;;;;;60.25;49.00;;;;;;;;5098533;27;45199;-65
2022/07/20 03:52:41;;;;;;;;;61.00;50.00;;;;;;;;5098437;27;45818;-65
2022/07/20 03:55:06;;;;;;;;;58.75;48.25;;;;;;;;5098344;27;45549;-65
2022/07/20 03:57:31;;;;;;;;;60.50;48.00;;;;;;;;5098582;27;45975;-64
2022/07/20 03:59:56;;;;;;;;;57.75;47.00;;;;;;;;5098373;27;45317;-64
2022/07/20 04:02:22;;;;;;;;;59.00;46.75;;;;;;;;5097962;27;45626;-64
2022/07/20 04:04:47;;;;;;;;;58.25;48.50;;;;;;;;5093789;27;45618;-62
2022/07/20 04:07:13;;;;;;;;;50.25;40.75;;;;;;;;5070534;27;45333;-63
2022/07/20 04:09:44;;;;;;;;;58.50;46.00;;;;;;;;5098170;27;45452;-64
2022/07/20 04:12:10;;;;;;;;;54.50;45.50;;;;;;;;5097812;27;46723;-63
2022/07/20 04:14:35;;;;;;;;;50.00;41.75;;;;;;;;5098089;27;45360;-64
2022/07/20 04:17:01;;;;;;;;;47.00;39.75;;;;;;;;5096850;27;45412;-64
2022/07/20 04:19:26;;;;;;;;;47.00;38.00;;;;;;;;5096865;27;46413;-62
2022/07/20 04:21:55;;;;;;;;;49.50;41.00;;;;;;;;5097858;27;45686;-62
2022/07/20 04:24:20;;;;;;;;;46.50;39.50;;;;;;;;5097762;27;45368;-65
2022/07/20 04:26:45;;;;;;;;;42.50;37.25;;;;;;;;5098096;27;45281;-63
2022/07/20 04:29:11;;;;;;;;;47.50;40.00;;;;;;;;5097589;27;45365;-63
2022/07/20 04:31:36;;;;;;;;;46.25;38.25;;;;;;;;5097218;27;46477;-64
2022/07/20 04:34:01;;;;;;;;;33.00;30.75;;;;;;;;5097390;27;45297;-64
2022/07/20 04:36:26;;;;;;;;;39.75;34.25;;;;;;;;5096790;27;45454;-64
2022/07/20 04:38:51;;;;;;;;;34.75;30.50;;;;;;;;5097673;27;45277;-63
2022/07/20 04:41:17;;;;;;;;;37.75;33.25;;;;;;;;5096255;27;46699;-64
2022/07/20 04:43:42;;;;;;;;;42.50;35.75;;;;;;;;5077838;27;45350;-66
2022/07/20 04:46:07;;;;;;;;;40.00;33.75;;;;;;;;5096998;27;45320;-67
2022/07/20 04:48:32;;;;;;;;;38.50;35.25;;;;;;;;5097606;27;45328;-67
2022/07/20 04:50:57;;;;;;;;;37.75;31.75;;;;;;;;5097327;27;46404;-67
2022/07/20 04:53:22;;;;;;;;;31.50;29.75;;;;;;;;5097563;27;45159;-67
2022/07/20 04:55:48;;;;;;;;;33.25;31.25;;;;;;;;5095559;27;45159;-68
2022/07/20 04:58:13;;;;;;;;;13.25;11.25;;;;;;;;5097385;27;45200;-68
2022/07/20 05:00:38;;;;;;;;;31.75;31.50;;;;;;;;5112805;27;46157;-67
2022/07/20 05:03:03;;;;;;;;;32.75;30.75;;;;;;;;5117667;27;45286;-66
2022/07/20 05:05:29;;;;;;;;;33.50;30.00;;;;;;;;5117610;27;45316;-68
2022/07/20 05:07:54;;;;;;;;;29.25;28.50;;;;;;;;5099396;27;45419;-68
2022/07/20 05:10:19;;;;;;;;;32.00;31.00;;;;;;;;5096710;27;45266;-68
2022/07/20 05:12:44;;;;;;;;;27.50;27.25;;;;;;;;5097143;27;45352;-67
2022/07/20 05:15:10;;;;;;;;;30.25;29.50;;;;;;;;5096176;27;45313;-67
2022/07/20 05:17:35;;;;;;;;;28.00;27.00;;;;;;;;5096704;27;45342;-68
2022/07/20 05:20:00;;;;;;;;;24.75;24.50;;;;;;;;5095657;27;46286;-70
2022/07/20 05:22:25;;;;;;;;;25.50;24.75;;;;;;;;5095786;27;45400;-66
2022/07/20 05:24:50;;;;;;;;;28.50;27.00;;;;;;;;5078666;27;45411;-67
2022/07/20 05:27:16;;;;;;;;;29.25;28.25;;;;;;;;5097003;27;45455;-66
2022/07/20 05:29:41;;;;;;;;;27.25;24.50;;;;;;;;5092858;27;46163;-66
2022/07/20 05:32:08;;;;;;;;;26.75;26.00;;;;;;;;5090863;27;45523;-65
2022/07/20 05:34:33;;;;;;;;;33.75;30.25;;;;;;;;5074324;28;45460;-64
2022/07/20 05:36:58;;;;;;;;;31.25;30.25;;;;;;;;5075822;28;45374;-65
2022/07/20 05:39:23;;;;;;;;;34.25;31.75;;;;;;;;5075625;28;45454;-66
2022/07/20 05:41:48;;;;;;;;;25.50;25.50;;;;;;;;5075343;28;45435;-65
2022/07/20 05:44:13;;;;;;;;;28.50;28.50;;;;;;;;5076697;28;45342;-65
2022/07/20 05:46:39;;;;;;;;;35.00;32.50;;;;;;;;5076314;28;45361;-66
2022/07/20 05:49:04;;;;;;;;;33.00;27.50;;;;;;;;5076084;28;46478;-65
2022/07/20 05:51:29;;;;;;;;;27.75;26.25;;;;;;;;5076072;28;45428;-65
2022/07/20 05:53:54;;;;;;;;;31.25;28.25;;;;;;;;5076077;28;45345;-67
2022/07/20 05:56:19;;;;;;;;;28.75;28.50;;;;;;;;5074290;28;45478;-69
2022/07/20 05:58:45;;;;;;;;;30.00;27.25;;;;;;;;5076093;28;46651;-65
2022/07/20 06:01:10;;;;;;;;;31.00;29.75;;;;;;;;5075756;28;45500;-64
2022/07/20 06:03:35;;;;;;;;;29.00;27.25;;;;;;;;5075743;28;45484;-64
2022/07/20 06:06:00;;;;;;;;;31.50;29.50;;;;;;;;5057947;28;45434;-64
2022/07/20 06:08:26;;;;;;;;;29.75;29.25;;;;;;;;5076054;28;46395;-65
2022/07/20 06:10:51;;;;;;;;;30.25;29.75;;;;;;;;5076034;28;45376;-64
2022/07/20 06:13:17;;;;;;;;;27.75;27.25;;;;;;;;5076065;28;45468;-64
2022/07/20 06:15:42;;;;;;;;;25.00;25.00;;;;;;;;5076083;28;45370;-65
2022/07/20 06:18:07;;;;;;;;;28.00;28.00;;;;;;;;5075952;28;46205;-64
2022/07/20 06:20:33;;;;;;;;;25.25;23.75;;;;;;;;5076045;28;45458;-64
2022/07/20 06:22:58;;;;;;;;;27.00;24.50;;;;;;;;5075897;28;45379;-64
2022/07/20 06:25:24;;;;;;;;;26.25;26.25;;;;;;;;5079349;27;45422;-65
2022/07/20 06:27:49;;;;;;;;;27.00;24.75;;;;;;;;5096161;27;46458;-64
2022/07/20 06:30:14;;;;;;;;;22.75;20.25;;;;;;;;5096341;27;45498;-64
2022/07/20 06:32:39;;;;;;;;;20.00;20.00;;;;;;;;5096341;27;45352;-64
2022/07/20 06:35:05;;;;;;;;;24.50;24.50;;;;;;;;5096304;27;45310;-64
2022/07/20 06:37:30;;;;;;;;;26.50;23.75;;;;;;;;5077337;27;47438;-65
2022/07/20 06:39:56;;;;;;;;;26.00;25.25;;;;;;;;5095963;27;45364;-65
2022/07/20 06:42:21;;;;;;;;;25.00;25.00;;;;;;;;5096247;27;45192;-64
2022/07/20 06:44:46;;;;;;;;;25.00;24.00;;;;;;;;5096015;27;45326;-65
2022/07/20 06:47:13;;;;;;;;;25.25;23.25;;;;;;;;5095850;27;46796;-65
2022/07/20 06:49:39;;;;;;;;;26.75;25.75;;;;;;;;5095721;27;45318;-65
2022/07/20 06:52:04;;;;;;;;;27.00;26.50;;;;;;;;5096059;27;45240;-66
2022/07/20 06:54:30;;;;;;;;;25.25;24.00;;;;;;;;5098996;27;45315;-65
2022/07/20 06:56:55;;;;;;;;;25.25;24.50;;;;;;;;5099459;27;46417;-64
2022/07/20 06:59:20;;;;;;;;;22.75;20.50;;;;;;;;5099408;27;45377;-66
2022/07/20 07:01:45;;;;;;;;;24.25;24.00;;;;;;;;5081170;27;45441;-66
2022/07/20 07:04:11;;;;;;;;;24.75;24.75;;;;;;;;5099439;27;45316;-66
2022/07/20 07:06:36;;;;;;;;;23.25;23.25;;;;;;;;5099236;27;45589;-65
2022/07/20 07:09:02;;;;;;;;;27.25;25.75;;;;;;;;5099212;27;45609;-65
2022/07/20 07:11:27;;;;;;;;;25.25;24.00;;;;;;;;5099250;27;45347;-66
2022/07/20 07:13:53;;;;;;;;;26.75;25.25;;;;;;;;5099168;27;45356;-65
2022/07/20 07:16:18;;;;;;;;;24.00;22.75;;;;;;;;5098832;27;46384;-64
2022/07/20 07:18:43;;;;;;;;;24.25;22.25;;;;;;;;5099301;27;45206;-64
2022/07/20 07:21:09;;;;;;;;;27.00;26.00;;;;;;;;5099158;27;45238;-64
2022/07/20 07:26:36;;;;;;;;;27.25;26.25;;;;;;;;5098231;27;45720;-63
2022/07/20 07:29:02;;;;;;;;;29.25;26.50;;;;;;;;5098795;27;45301;-64
2022/07/20 07:31:27;;;;;;;;;27.50;24.25;;;;;;;;5099063;27;45708;-64
2022/07/20 07:40:35;;;;;;;;;27.25;25.25;;;;;;;;5098869;27;45321;-63
2022/07/20 07:43:00;;;;;;;;;25.75;24.00;;;;;;;;5080462;27;45335;-63
2022/07/20 07:45:26;;;;;;;;;26.00;24.25;;;;;;;;5098663;27;45341;-63
2022/07/20 07:47:51;;;;;;;;;25.50;25.50;;;;;;;;5098548;27;46417;-64
2022/07/20 07:50:16;;;;;;;;;27.75;27.75;;;;;;;;5098604;27;45402;-64
2022/07/20 07:52:42;;;;;;;;;31.75;28.25;;;;;;;;5080234;27;45254;-64
2022/07/20 07:55:07;;;;;;;;;26.75;26.75;;;;;;;;5098628;27;45347;-64
2022/07/20 07:57:32;;;;;;;;;33.50;29.75;;;;;;;;5098327;27;46584;-65
2022/07/20 07:59:57;;;;;;;;;29.25;27.75;;;;;;;;5098512;27;45455;-64
2022/07/20 08:02:23;;;;;;;;;27.75;26.25;;;;;;;;5098614;27;45751;-64
2022/07/20 08:04:48;;;;;;;;;27.25;27.00;;;;;;;;5097007;27;45309;-65
2022/07/20 08:07:13;;;;;;;;;29.25;25.25;;;;;;;;5098325;27;46662;-65
2022/07/20 08:09:38;;;;;;;;;25.50;24.75;;;;;;;;5098195;27;45377;-64
2022/07/20 08:12:04;;;;;;;;;29.00;25.75;;;;;;;;5098361;27;45368;-65
2022/07/20 08:14:29;;;;;;;;;20.00;17.25;;;;;;;;5098458;27;45332;-63
2022/07/20 08:16:54;;;;;;;;;27.50;27.50;;;;;;;;5098172;27;45679;-64
2022/07/20 08:19:19;;;;;;;;;24.50;21.50;;;;;;;;5098036;27;45290;-64
2022/07/20 08:21:45;;;;;;;;;28.00;26.00;;;;;;;;5098185;27;45345;-64
2022/07/20 08:24:10;;;;;;;;;24.75;23.75;;;;;;;;5098185;27;45341;-65
2022/07/20 08:26:35;;;;;;;;;22.25;22.25;;;;;;;;5079343;27;48325;-65
2022/07/20 08:29:00;;;;;;;;;29.50;28.50;;;;;;;;5097989;27;45329;-65
2022/07/20 08:31:26;;;;;;;;;26.75;25.75;;;;;;;;5098001;27;45382;-65
2022/07/20 08:33:51;;;;;;;;;22.75;22.75;;;;;;;;5079572;27;45460;-65
2022/07/20 08:36:16;;;;;;;;;26.50;23.00;;;;;;;;5097727;27;45686;-66
2022/07/20 08:38:41;;;;;;;;;23.00;20.75;;;;;;;;5097635;27;45317;-66
2022/07/20 08:41:07;;;;;;;;;19.50;17.50;;;;;;;;5098053;27;45353;-65
2022/07/20 08:43:32;;;;;;;;;21.75;20.00;;;;;;;;5098274;27;45392;-65
2022/07/20 08:45:57;;;;;;;;;25.00;25.00;;;;;;;;5097889;27;46538;-67
2022/07/20 08:48:23;;;;;;;;;22.25;21.25;;;;;;;;5097799;27;45298;-65
2022/07/20 08:50:48;;;;;;;;;20.50;17.75;;;;;;;;5097634;27;45348;-65
2022/07/20 08:53:13;;;;;;;;;16.75;16.75;;;;;;;;5097794;27;45429;-65
2022/07/20 08:55:39;;;;;;;;;20.75;18.75;;;;;;;;5079066;27;48289;-65
2022/07/20 08:58:04;;;;;;;;;15.50;15.25;;;;;;;;5097640;27;45755;-65
2022/07/20 09:00:29;;;;;;;;;10.50;10.50;;;;;;;;5097696;27;45311;-65
2022/07/20 09:02:54;;;;;;;;;17.75;16.75;;;;;;;;5097653;27;45336;-64
2022/07/20 09:05:21;;;;;;;;;14.00;13.25;;;;;;;;5097480;27;45594;-65
2022/07/20 09:07:47;;;;;;;;;13.25;13.25;;;;;;;;5097526;27;45316;-65
2022/07/20 09:10:17;;;;;;;;;14.25;12.25;;;;;;;;5097489;27;45321;-64
2022/07/20 09:13:01;;;;;;;;;10.50;10.50;;;;;;;;5097345;27;45324;-65
2022/07/20 09:15:38;;;;;;;;;10.25;10.25;;;;;;;;5096751;27;45812;-64
2022/07/20 09:18:15;;;;;;;;;11.50;11.25;;;;;;;;5097215;27;45307;-66
2022/07/20 09:20:42;;;;;;;;;10.50;10.50;;;;;;;;5078923;27;45425;-65
2022/07/20 09:23:18;;;;;;;;;12.75;12.00;;;;;;;;5097099;27;45276;-66
2022/07/20 09:25:49;;;;;;;;;12.75;11.50;;;;;;;;5096702;27;46486;-64
2022/07/20 09:28:14;;;;;;;;;14.75;13.00;;;;;;;;5096860;27;45313;-65
2022/07/20 09:30:40;;;;;;;;;10.00;8.00;;;;;;;;5078697;27;45392;-65
2022/07/20 09:33:05;;;;;;;;;11.25;10.25;;;;;;;;5097126;27;45374;-66
2022/07/20 09:35:32;;;;;;;;;11.00;10.00;;;;;;;;5096893;27;45497;-64
2022/07/20 09:37:59;;;;;;;;;6.25;5.50;;;;;;;;5078537;27;45481;-64
2022/07/20 09:40:25;;;;;;;;;8.50;8.00;;;;;;;;5078404;27;45291;-64
2022/07/20 09:42:50;;;;;;;;;10.75;9.25;;;;;;;;5096779;27;45316;-65
2022/07/20 09:45:22;;;;;;;;;9.50;8.50;;;;;;;;5077971;27;48440;-65
2022/07/20 09:48:01;;;;;;;;;9.75;9.75;;;;;;;;5096744;27;45360;-65
2022/07/20 09:50:28;;;;;;;;;9.00;8.00;;;;;;;;5096928;27;45385;-66
2022/07/20 09:52:53;;;;;;;;;8.00;8.00;;;;;;;;5078320;27;45639;-65
2022/07/20 09:55:18;;;;;;;;;8.00;7.25;;;;;;;;5096484;27;46430;-65
2022/07/20 09:57:43;;;;;;;;;7.75;7.75;;;;;;;;5096640;27;45563;-66
2022/07/20 10:00:09;;;;;;;;;6.25;6.25;;;;;;;;5078283;27;45275;-65
2022/07/20 10:02:35;;;;;;;;;6.50;6.50;;;;;;;;5096856;27;45426;-64
2022/07/20 10:05:00;;;;;;;;;6.50;6.50;;;;;;;;5096350;27;45993;-65
2022/07/20 10:07:26;;;;;;;;;7.25;6.25;;;;;;;;5096488;27;45330;-66
2022/07/20 10:09:51;;;;;;;;;6.00;6.00;;;;;;;;5096670;27;45403;-64
2022/07/20 10:12:16;;;;;;;;;4.00;4.00;;;;;;;;5096613;27;45313;-65
2022/07/20 10:14:45;;;;;;;;;8.50;8.50;;;;;;;;5096325;27;45457;-65
2022/07/20 10:17:10;;;;;;;;;6.00;6.00;;;;;;;;5096252;27;45527;-66
2022/07/20 10:19:46;;;;;;;;;6.75;6.75;;;;;;;;5096377;27;45371;-65
2022/07/20 10:22:11;;;;;;;;;7.00;7.00;;;;;;;;5096280;27;45381;-65
2022/07/20 10:24:38;;;;;;;;;8.25;8.25;;;;;;;;5096007;27;45813;-64
2022/07/20 10:27:16;;;;;;;;;7.75;6.25;;;;;;;;5095889;27;45339;-65
2022/07/20 10:29:41;;;;;;;;;5.25;5.00;;;;;;;;5099419;27;45356;-65
2022/07/20 10:32:09;;;;;;;;;5.25;5.25;;;;;;;;5099917;27;45293;-65
2022/07/20 10:34:42;;;;;;;;;8.50;6.50;;;;;;;;5099813;27;46688;-65
2022/07/20 10:37:23;;;;;;;;;8.25;8.25;;;;;;;;5099733;27;45419;-65
2022/07/20 10:39:48;;;;;;;;;5.50;5.50;;;;;;;;5099819;27;45392;-66
2022/07/20 10:42:19;;;;;;;;;6.50;6.50;;;;;;;;5099794;27;45336;-65
2022/07/20 10:44:45;;;;;;;;;10.00;10.00;;;;;;;;5099615;27;45827;-65
2022/07/20 10:47:30;;;;;;;;;11.00;9.00;;;;;;;;5099540;27;45494;-64
2022/07/20 10:50:00;;;;;;;;;7.75;7.75;;;;;;;;5099603;27;45343;-66
2022/07/20 10:52:26;;;;;;;;;6.00;5.00;;;;;;;;5099736;27;45332;-65
2022/07/20 10:54:51;;;;;;;;;6.00;6.00;;;;;;;;5099309;27;46037;-65
2022/07/20 10:57:16;;;;;;;;;8.25;8.25;;;;;;;;5099718;27;45352;-64
2022/07/20 10:59:42;;;;;;;;;8.25;7.25;;;;;;;;5099605;27;45346;-65
2022/07/20 11:02:07;;;;;;;;;6.00;6.00;;;;;;;;5081032;27;45408;-65
2022/07/20 11:04:41;;;;;;;;;7.50;7.50;;;;;;;;5099193;27;46191;-66
2022/07/20 11:07:06;;;;;;;;;8.00;7.00;;;;;;;;5099317;27;45344;-65
2022/07/20 11:09:31;;;;;;;;;5.50;5.00;;;;;;;;5099300;27;45323;-65
2022/07/20 11:11:57;;;;;;;;;7.25;6.00;;;;;;;;5081003;27;45599;-65
2022/07/20 11:14:22;;;;;;;;;6.50;6.50;;;;;;;;5080540;27;46290;-65
2022/07/20 11:16:55;;;;;;;;;9.00;9.00;;;;;;;;5099111;27;45403;-65
2022/07/20 11:19:20;;;;;;;;;10.00;6.75;;;;;;;;5099345;27;45265;-65
2022/07/20 11:21:45;;;;;;;;;6.50;6.50;;;;;;;;5099308;27;45282;-66
2022/07/20 11:24:27;;;;;;;;;10.25;8.00;;;;;;;;5080708;27;48732;-65
2022/07/20 11:26:53;;;;;;;;;9.50;8.00;;;;;;;;5080601;27;45485;-65
2022/07/20 11:29:18;;;;;;;;;7.25;7.25;;;;;;;;5080550;27;45356;-65
2022/07/20 11:31:44;;;;;;;;;7.50;6.50;;;;;;;;5080546;27;45322;-64
2022/07/20 11:34:11;;;;;;;;;6.75;6.50;;;;;;;;5098863;27;45548;-64
2022/07/20 11:36:37;;;;;;;;;5.25;4.00;;;;;;;;5098608;27;45455;-65
2022/07/20 11:39:06;;;;;;;;;6.25;5.25;;;;;;;;5098793;27;45352;-65
2022/07/20 11:41:34;;;;;;;;;8.00;8.00;;;;;;;;5098707;27;45517;-65
2022/07/20 11:43:59;;;;;;;;;5.00;5.00;;;;;;;;5098634;27;46432;-64
2022/07/20 11:46:26;;;;;;;;;9.25;8.25;;;;;;;;5098942;27;45443;-67
2022/07/20 11:48:53;;;;;;;;;9.75;8.00;;;;;;;;5080350;27;45302;-65
2022/07/20 11:51:18;;;;;;;;;9.50;9.50;;;;;;;;5098525;27;45327;-64
2022/07/20 11:53:43;;;;;;;;;8.25;6.75;;;;;;;;5098664;27;45553;-65
2022/07/20 11:56:13;;;;;;;;;13.25;10.00;;;;;;;;5099634;27;45365;-66
2022/07/20 11:58:39;;;;;;;;;9.50;9.50;;;;;;;;5099438;27;45219;-64
2022/07/20 12:01:07;;;;;;;;;8.00;8.00;;;;;;;;5080118;27;45343;-65
2022/07/20 12:03:34;;;;;;;;;11.75;8.75;;;;;;;;5098217;27;45345;-65
2022/07/20 12:06:00;;;;;;;;;10.00;10.00;;;;;;;;5098051;27;45395;-65
2022/07/20 12:08:26;;;;;;;;;9.25;9.25;;;;;;;;5098557;27;45348;-64
2022/07/20 12:10:51;;;;;;;;;15.00;10.25;;;;;;;;5079924;27;45438;-65
2022/07/20 12:13:17;;;;;;;;;10.25;9.00;;;;;;;;5098264;27;45379;-65
2022/07/20 12:15:56;;;;;;;;;8.25;8.25;;;;;;;;5097968;27;45250;-65
2022/07/20 12:18:33;;;;;;;;;8.25;8.25;;;;;;;;5098306;27;45274;-65
2022/07/20 12:20:59;;;;;;;;;9.50;9.50;;;;;;;;5097914;27;45583;-65
2022/07/20 12:23:25;;;;;;;;;10.75;9.00;;;;;;;;5097893;27;46327;-64
2022/07/20 12:25:51;;;;;;;;;10.00;9.00;;;;;;;;5079401;27;45485;-65
2022/07/20 12:28:26;;;;;;;;;9.00;9.00;;;;;;;;5080081;27;45367;-66
2022/07/20 12:30:51;;;;;;;;;9.50;9.50;;;;;;;;5098031;27;45234;-66
2022/07/20 12:33:17;;;;;;;;;9.50;9.50;;;;;;;;5097667;27;46350;-64
2022/07/20 12:35:43;;;;;;;;;9.50;8.25;;;;;;;;5098073;27;45363;-65
2022/07/20 12:38:09;;;;;;;;;11.75;11.75;;;;;;;;5079309;27;45437;-65
2022/07/20 12:40:42;;;;;;;;;10.00;10.00;;;;;;;;5097748;27;45381;-64
2022/07/20 12:43:26;;;;;;;;;14.75;11.75;;;;;;;;5097626;27;45798;-65
2022/07/20 12:45:52;;;;;;;;;12.00;11.00;;;;;;;;5097365;27;45515;-65
2022/07/20 12:48:17;;;;;;;;;7.50;7.50;;;;;;;;5097493;27;45395;-64
2022/07/20 12:50:42;;;;;;;;;13.00;12.00;;;;;;;;5096893;27;45369;-65
2022/07/20 12:53:07;;;;;;;;;10.00;9.25;;;;;;;;5078977;27;46666;-64
2022/07/20 12:55:32;;;;;;;;;11.00;11.00;;;;;;;;5097698;27;45416;-65
2022/07/20 12:57:58;;;;;;;;;11.75;10.00;;;;;;;;5097679;27;45372;-66
2022/07/20 13:00:23;;;;;;;;;10.50;10.50;;;;;;;;5097892;27;45309;-65
2022/07/20 13:02:48;;;;;;;;;8.50;8.50;;;;;;;;5079299;27;46070;-65
2022/07/20 13:05:14;;;;;;;;;11.00;11.00;;;;;;;;5097322;27;45450;-65
2022/07/20 13:07:39;;;;;;;;;11.75;10.75;;;;;;;;5097345;27;45443;-65
2022/07/20 13:10:05;;;;;;;;;10.50;10.50;;;;;;;;5097454;27;45312;-65
2022/07/20 13:12:30;;;;;;;;;11.00;10.25;;;;;;;;5097384;27;45594;-65
2022/07/20 13:14:55;;;;;;;;;10.50;10.25;;;;;;;;5097355;27;45308;-64
2022/07/20 13:17:20;;;;;;;;;11.50;8.50;;;;;;;;5078574;27;45306;-65
2022/07/20 13:19:46;;;;;;;;;14.25;11.00;;;;;;;;5078767;27;45534;-66
2022/07/20 13:22:12;;;;;;;;;8.50;7.25;;;;;;;;5097045;27;46006;-65
2022/07/20 13:24:37;;;;;;;;;10.75;10.00;;;;;;;;5078768;27;45230;-64
2022/07/20 13:27:03;;;;;;;;;13.00;12.00;;;;;;;;5096882;27;45328;-65
2022/07/20 13:29:28;;;;;;;;;10.75;9.25;;;;;;;;5097084;27;45302;-65
2022/07/20 13:31:53;;;;;;;;;10.50;9.50;;;;;;;;5096931;27;46554;-66
2022/07/20 13:34:19;;;;;;;;;10.75;9.75;;;;;;;;5097026;27;45456;-66
2022/07/20 13:36:44;;;;;;;;;11.75;11.25;;;;;;;;5096903;27;45372;-65
2022/07/20 13:39:09;;;;;;;;;9.75;9.75;;;;;;;;5078758;27;45400;-65
2022/07/20 13:41:34;;;;;;;;;12.00;11.75;;;;;;;;5096898;27;45324;-66
2022/07/20 13:43:59;;;;;;;;;16.75;13.75;;;;;;;;5096654;27;45246;-65
2022/07/20 13:46:26;;;;;;;;;14.75;12.00;;;;;;;;5096904;27;45411;-64
2022/07/20 13:48:52;;;;;;;;;9.25;8.50;;;;;;;;5078359;27;45364;-64
2022/07/20 13:51:17;;;;;;;;;12.50;12.50;;;;;;;;5078088;27;47431;-65
2022/07/20 13:53:42;;;;;;;;;11.00;11.00;;;;;;;;5096613;27;45402;-65
2022/07/20 13:56:08;;;;;;;;;11.75;10.75;;;;;;;;5078466;27;45261;-66
2022/07/20 13:58:35;;;;;;;;;11.75;11.25;;;;;;;;5096671;27;45460;-65
2022/07/20 14:01:00;;;;;;;;;12.00;10.50;;;;;;;;5077859;27;47683;-65
2022/07/20 14:03:26;;;;;;;;;10.75;10.25;;;;;;;;5096474;27;45416;-66
2022/07/20 14:05:51;;;;;;;;;12.50;11.50;;;;;;;;5096496;27;45318;-64
2022/07/20 14:08:16;;;;;;;;;10.50;10.50;;;;;;;;5096725;27;45325;-65
2022/07/20 14:10:42;;;;;;;;;12.00;12.00;;;;;;;;5096454;27;45743;-65
2022/07/20 14:13:07;;;;;;;;;12.25;11.25;;;;;;;;5096369;27;45278;-65
2022/07/20 14:15:32;;;;;;;;;9.50;8.75;;;;;;;;5096470;27;45918;-66
2022/07/20 14:17:57;;;;;;;;;11.50;10.50;;;;;;;;5096520;27;45269;-65
2022/07/20 14:20:22;;;;;;;;;13.75;12.00;;;;;;;;5096316;27;45341;-63
2022/07/20 14:22:48;;;;;;;;;12.00;11.00;;;;;;;;5096122;27;45402;-64
2022/07/20 14:25:13;;;;;;;;;9.00;9.00;;;;;;;;5096309;27;45405;-65
2022/07/20 14:27:38;;;;;;;;;12.75;12.00;;;;;;;;5096395;27;45496;-65
2022/07/20 14:30:05;;;;;;;;;11.50;11.50;;;;;;;;5096107;27;45858;-65
2022/07/20 14:32:30;;;;;;;;;9.25;9.25;;;;;;;;5077651;27;45342;-65